Time;durP1;ratioP1;P1;durP2;ratioP2;P2;SDS_P1;SDS_P2;PMS_P1;PMS_P2;Temp;Humidity;BMP_temperature;BMP_pressure;BME280_temperature;BME280_humidity;BME280_pressure;Samples;Min_cycle;Max_cycle;Signal;HPM_P1;HPM_P2
2020/12/05 00:00:44;;;;;;;46.58;23.98;;;1.20;39.40;;;;;;5004632;28;20046;-68
2020/12/05 00:03:11;;;;;;;47.15;24.58;;;1.30;39.10;;;;;;5005275;28;20120;-68
2020/12/05 00:05:41;;;;;;;51.50;25.10;;;1.40;37.80;;;;;;5003015;28;20061;-69
2020/12/05 00:08:09;;;;;;;44.55;22.92;;;1.40;38.70;;;;;;4997485;28;20057;-70
2020/12/05 00:10:36;;;;;;;42.10;22.30;;;1.50;37.70;;;;;;5004928;28;20506;-67
2020/12/05 00:13:02;;;;;;;40.67;21.90;;;1.60;37.30;;;;;;5005879;28;20049;-68
2020/12/05 00:15:29;;;;;;;43.20;22.55;;;1.50;35.20;;;;;;5003017;28;20060;-71
2020/12/05 00:17:56;;;;;;;43.20;22.50;;;1.40;35.60;;;;;;5000868;28;20050;-70
2020/12/05 00:20:23;;;;;;;44.20;22.13;;;1.50;35.40;;;;;;5003158;28;20045;-68
2020/12/05 00:22:50;;;;;;;40.42;21.05;;;1.50;35.20;;;;;;5006172;28;20049;-67
2020/12/05 00:25:18;;;;;;;43.30;22.15;;;1.70;35.40;;;;;;5002880;28;20048;-72
2020/12/05 00:27:45;;;;;;;42.75;20.73;;;1.70;34.60;;;;;;5000147;28;20046;-69
2020/12/05 00:30:12;;;;;;;39.10;20.27;;;1.60;34.20;;;;;;5003334;28;20513;-67
2020/12/05 00:32:39;;;;;;;41.67;20.60;;;1.70;34.10;;;;;;5002240;28;20076;-68
2020/12/05 00:35:06;;;;;;;39.55;19.88;;;1.70;34.60;;;;;;5001800;28;20056;-72
2020/12/05 00:37:33;;;;;;;43.90;20.58;;;1.70;35.00;;;;;;5000138;28;20565;-71
2020/12/05 00:39:59;;;;;;;39.67;20.60;;;1.70;35.30;;;;;;5000796;28;20046;-68
2020/12/05 00:42:27;;;;;;;47.63;23.02;;;1.60;34.80;;;;;;5004067;28;20058;-69
2020/12/05 00:44:55;;;;;;;46.38;21.70;;;1.60;35.20;;;;;;5003123;28;20046;-68
2020/12/05 00:47:21;;;;;;;40.88;20.05;;;1.60;35.20;;;;;;4999521;28;20126;-68
2020/12/05 00:49:48;;;;;;;39.60;21.17;;;1.60;35.70;;;;;;5001800;28;20136;-71
2020/12/05 00:52:15;;;;;;;45.03;22.50;;;1.60;36.20;;;;;;5004201;28;20060;-69
2020/12/05 00:54:42;;;;;;;44.03;21.55;;;1.60;37.70;;;;;;5003720;28;20049;-74
2020/12/05 00:57:09;;;;;;;39.92;21.40;;;1.60;37.30;;;;;;5000300;28;20046;-70
2020/12/05 00:59:37;;;;;;;40.70;21.33;;;1.60;37.80;;;;;;5001340;28;20481;-67
2020/12/05 01:02:04;;;;;;;39.75;20.88;;;1.60;36.50;;;;;;5001896;28;20070;-69
2020/12/05 01:04:31;;;;;;;40.47;20.23;;;1.50;38.70;;;;;;5000793;28;20053;-68
2020/12/05 01:07:00;;;;;;;43.33;22.08;;;1.50;39.00;;;;;;5000192;28;20042;-67
2020/12/05 01:09:27;;;;;;;41.13;22.58;;;1.40;39.70;;;;;;4998261;28;20137;-68
2020/12/05 01:11:54;;;;;;;43.83;21.52;;;1.40;39.50;;;;;;5002970;28;20064;-67
2020/12/05 01:14:21;;;;;;;60.03;22.02;;;1.40;40.50;;;;;;5002290;28;20507;-67
2020/12/05 01:16:48;;;;;;;42.03;21.38;;;1.40;41.60;;;;;;5004202;28;20053;-68
2020/12/05 01:19:15;;;;;;;40.15;22.35;;;1.50;42.10;;;;;;4998614;28;20463;-68
2020/12/05 01:21:45;;;;;;;44.38;22.35;;;1.50;42.00;;;;;;5001244;28;20129;-70
2020/12/05 01:24:12;;;;;;;46.22;22.50;;;1.50;40.70;;;;;;5006768;28;20046;-69
2020/12/05 01:26:39;;;;;;;43.38;22.90;;;1.60;42.10;;;;;;4999732;28;20042;-68
2020/12/05 01:29:06;;;;;;;40.85;21.40;;;1.60;40.90;;;;;;4998218;28;20667;-70
2020/12/05 01:31:33;;;;;;;45.88;22.55;;;1.80;41.90;;;;;;5001880;28;20136;-77
2020/12/05 01:34:04;;;;;;;42.45;21.88;;;1.80;41.60;;;;;;5000555;28;20053;-68
2020/12/05 01:36:31;;;;;;;47.22;23.13;;;1.80;41.40;;;;;;5001634;28;20058;-67
2020/12/05 01:38:59;;;;;;;39.97;21.48;;;1.90;41.00;;;;;;5001246;28;20089;-68
2020/12/05 01:41:26;;;;;;;40.67;22.13;;;1.90;42.10;;;;;;5002044;28;20078;-69
2020/12/05 01:43:54;;;;;;;42.67;22.80;;;2.00;41.40;;;;;;5002840;28;20060;-69
2020/12/05 01:46:33;;;;;;;45.90;22.17;;;2.00;42.80;;;;;;4999853;28;20088;-71
2020/12/05 01:49:01;;;;;;;44.05;22.63;;;2.00;43.50;;;;;;4996553;28;20053;-69
2020/12/05 01:51:30;;;;;;;42.63;22.98;;;2.00;42.60;;;;;;5002387;28;20864;-68
2020/12/05 01:53:58;;;;;;;43.15;21.05;;;2.00;42.00;;;;;;5000426;28;20077;-69
2020/12/05 01:56:27;;;;;;;42.40;22.50;;;2.00;42.40;;;;;;4998055;28;20060;-68
2020/12/05 01:58:55;;;;;;;42.05;22.02;;;2.00;42.50;;;;;;4996762;28;20054;-68
2020/12/05 02:01:24;;;;;;;44.28;22.38;;;2.00;43.50;;;;;;5002260;28;20514;-69
2020/12/05 02:03:53;;;;;;;45.10;22.83;;;2.00;43.80;;;;;;5000779;28;20049;-67
2020/12/05 02:06:43;;;;;;;48.58;23.35;;;2.00;44.70;;;;;;4999420;28;20050;-70
2020/12/05 02:09:14;;;;;;;38.67;20.95;;;1.90;45.90;;;;;;4991957;28;20112;-70
2020/12/05 02:11:48;;;;;;;47.83;22.98;;;1.90;47.10;;;;;;4999211;28;20085;-69
2020/12/05 02:14:21;;;;;;;43.20;22.20;;;2.00;47.80;;;;;;5001430;28;20053;-70
2020/12/05 02:16:50;;;;;;;46.92;22.05;;;1.90;48.30;;;;;;5002299;28;20056;-69
2020/12/05 02:19:21;;;;;;;43.88;21.90;;;1.80;49.50;;;;;;4994177;28;20455;-70
2020/12/05 02:21:53;;;;;;;45.78;23.10;;;1.70;49.00;;;;;;5000711;28;20061;-70
2020/12/05 02:24:21;;;;;;;44.88;23.45;;;1.60;52.10;;;;;;5000460;28;20987;-70
2020/12/05 02:26:48;;;;;;;44.95;23.15;;;1.60;51.90;;;;;;4999738;28;20050;-71
2020/12/05 02:29:14;;;;;;;50.67;24.45;;;1.60;53.80;;;;;;4995840;28;20057;-70
2020/12/05 02:31:41;;;;;;;48.47;24.42;;;1.60;54.30;;;;;;5002525;28;20046;-69
2020/12/05 02:34:08;;;;;;;50.33;24.38;;;1.50;55.30;;;;;;5001495;28;20503;-69
2020/12/05 02:36:38;;;;;;;49.95;25.70;;;1.60;56.30;;;;;;4998475;28;20069;-70
2020/12/05 02:39:08;;;;;;;45.75;24.17;;;1.70;56.80;;;;;;4998049;28;20065;-70
2020/12/05 02:41:41;;;;;;;45.40;24.05;;;1.70;57.10;;;;;;4995021;28;20050;-71
2020/12/05 02:44:07;;;;;;;47.20;25.20;;;1.60;57.20;;;;;;5002036;28;20049;-68
2020/12/05 02:46:35;;;;;;;48.45;25.08;;;1.70;58.00;;;;;;4998484;28;20133;-69
2020/12/05 02:49:02;;;;;;;51.88;25.30;;;1.70;58.50;;;;;;4996942;28;20444;-69
2020/12/05 02:51:29;;;;;;;45.00;23.58;;;1.60;58.90;;;;;;5002298;28;20503;-69
2020/12/05 02:53:56;;;;;;;46.30;24.17;;;1.50;59.20;;;;;;4998889;28;20073;-70
2020/12/05 02:56:24;;;;;;;47.97;25.15;;;1.60;60.00;;;;;;5000205;28;20071;-68
2020/12/05 02:58:52;;;;;;;46.95;23.20;;;1.60;60.10;;;;;;4999928;28;20054;-69
2020/12/05 03:01:20;;;;;;;45.95;23.17;;;1.50;59.80;;;;;;4997679;28;20050;-69
2020/12/05 03:03:47;;;;;;;47.90;23.70;;;1.40;60.60;;;;;;5000436;28;20053;-69
2020/12/05 03:06:15;;;;;;;46.20;24.30;;;1.30;61.10;;;;;;4999060;28;20571;-69
2020/12/05 03:08:42;;;;;;;46.75;24.45;;;1.40;62.30;;;;;;4993068;28;20062;-69
2020/12/05 03:11:09;;;;;;;46.33;24.10;;;1.30;62.70;;;;;;5000038;28;20476;-69
2020/12/05 03:13:38;;;;;;;48.03;23.63;;;1.20;62.90;;;;;;4999546;28;20057;-68
2020/12/05 03:16:07;;;;;;;49.17;25.30;;;1.30;64.60;;;;;;4996802;28;20070;-69
2020/12/05 03:18:34;;;;;;;44.60;24.27;;;1.30;64.90;;;;;;4993024;28;20070;-69
2020/12/05 03:21:02;;;;;;;47.63;24.50;;;1.20;64.20;;;;;;5001885;28;20049;-68
2020/12/05 03:23:28;;;;;;;45.97;23.38;;;1.30;65.90;;;;;;5003899;28;20054;-69
2020/12/05 03:25:56;;;;;;;44.17;23.55;;;1.40;66.10;;;;;;5004403;28;20420;-68
2020/12/05 03:28:25;;;;;;;44.90;22.13;;;1.30;66.10;;;;;;5001146;28;20042;-68
2020/12/05 03:30:52;;;;;;;41.75;21.55;;;1.40;66.80;;;;;;5004819;28;20113;-68
2020/12/05 03:33:22;;;;;;;43.63;20.75;;;1.30;66.90;;;;;;5003102;28;20058;-67
2020/12/05 03:35:49;;;;;;;38.70;21.27;;;1.20;66.30;;;;;;5004911;28;20058;-67
2020/12/05 03:38:16;;;;;;;36.00;20.33;;;1.30;67.10;;;;;;4999057;28;20435;-68
2020/12/05 03:40:43;;;;;;;38.47;19.48;;;1.40;67.80;;;;;;5003273;28;20129;-68
2020/12/05 03:43:09;;;;;;;37.92;19.48;;;1.40;68.10;;;;;;5003418;28;20093;-68
2020/12/05 03:45:37;;;;;;;30.30;17.92;;;1.40;68.20;;;;;;5003600;28;20050;-68
2020/12/05 03:48:04;;;;;;;31.80;18.13;;;1.40;68.30;;;;;;4997389;28;20045;-68
2020/12/05 03:50:32;;;;;;;32.75;17.73;;;1.40;68.50;;;;;;5000240;28;20075;-68
2020/12/05 03:52:59;;;;;;;26.58;15.73;;;1.40;68.80;;;;;;5004521;28;20121;-68
2020/12/05 03:55:26;;;;;;;30.95;16.65;;;1.40;68.70;;;;;;5001778;28;20133;-68
2020/12/05 03:57:53;;;;;;;30.25;16.27;;;1.30;68.50;;;;;;4999220;28;20149;-69
2020/12/05 04:00:23;;;;;;;26.10;15.27;;;1.30;69.10;;;;;;5004335;28;20053;-69
2020/12/05 04:02:51;;;;;;;27.92;16.08;;;1.30;69.60;;;;;;5000675;28;20092;-69
2020/12/05 04:05:18;;;;;;;27.58;15.45;;;1.40;70.10;;;;;;5001779;28;20526;-69
2020/12/05 04:07:46;;;;;;;27.88;15.50;;;1.40;70.10;;;;;;4998500;28;20046;-69
2020/12/05 04:10:13;;;;;;;26.85;15.88;;;1.40;70.30;;;;;;4997002;28;20047;-69
2020/12/05 04:12:40;;;;;;;26.40;16.05;;;1.40;70.90;;;;;;5002325;28;20184;-68
2020/12/05 04:15:08;;;;;;;27.10;15.48;;;1.40;70.40;;;;;;5002563;28;20045;-70
2020/12/05 04:17:35;;;;;;;24.42;15.07;;;1.40;70.50;;;;;;5002390;28;20654;-68
2020/12/05 04:20:03;;;;;;;28.00;15.00;;;1.40;71.00;;;;;;4997192;28;20065;-68
2020/12/05 04:22:30;;;;;;;25.25;15.10;;;1.40;71.10;;;;;;5000543;28;20488;-69
2020/12/05 04:24:58;;;;;;;28.63;15.43;;;1.30;71.70;;;;;;5001878;28;20056;-68
2020/12/05 04:27:25;;;;;;;25.75;14.52;;;1.40;71.10;;;;;;4999065;28;20062;-69
2020/12/05 04:29:53;;;;;;;26.45;16.15;;;1.40;71.10;;;;;;4999766;28;20053;-68
2020/12/05 04:32:20;;;;;;;29.17;16.23;;;1.50;71.70;;;;;;4999314;28;20511;-69
2020/12/05 04:34:47;;;;;;;30.40;17.17;;;1.60;71.90;;;;;;4999223;28;20053;-69
2020/12/05 04:37:15;;;;;;;30.27;16.73;;;1.60;71.90;;;;;;5001365;28;20052;-68
2020/12/05 04:39:42;;;;;;;30.58;17.25;;;1.50;71.30;;;;;;5000484;28;20112;-68
2020/12/05 04:42:10;;;;;;;30.67;17.10;;;1.50;71.20;;;;;;5000763;28;20124;-69
2020/12/05 04:44:37;;;;;;;30.85;16.65;;;1.50;71.30;;;;;;4997550;28;20735;-68
2020/12/05 04:47:06;;;;;;;28.92;17.38;;;1.50;71.20;;;;;;5005410;28;20049;-70
2020/12/05 04:49:36;;;;;;;28.73;17.15;;;1.50;72.20;;;;;;5003105;28;20054;-67
2020/12/05 04:52:18;;;;;;;34.95;18.95;;;1.50;71.60;;;;;;5001461;28;20595;-69
2020/12/05 04:54:50;;;;;;;31.23;18.35;;;1.50;71.80;;;;;;5001627;28;20058;-68
2020/12/05 04:57:21;;;;;;;31.88;17.30;;;1.50;71.40;;;;;;4997510;28;20105;-68
2020/12/05 04:59:50;;;;;;;29.98;16.95;;;1.50;71.90;;;;;;4999805;28;20058;-68
2020/12/05 05:02:19;;;;;;;31.58;17.63;;;1.40;71.20;;;;;;4994741;28;20050;-68
2020/12/05 05:04:49;;;;;;;29.67;16.05;;;1.50;71.80;;;;;;5006045;28;20500;-73
2020/12/05 05:07:16;;;;;;;28.83;16.02;;;1.50;71.90;;;;;;4995121;28;20055;-73
2020/12/05 05:09:48;;;;;;;29.60;17.13;;;1.50;71.90;;;;;;4995828;28;20054;-69
2020/12/05 05:12:31;;;;;;;29.33;16.63;;;1.50;72.00;;;;;;4999150;28;20050;-68
2020/12/05 05:14:58;;;;;;;28.10;16.23;;;1.40;72.00;;;;;;5003245;28;20778;-67
2020/12/05 05:17:25;;;;;;;29.02;16.80;;;1.40;72.30;;;;;;5001758;28;20576;-72
2020/12/05 05:19:52;;;;;;;28.85;16.58;;;1.50;73.00;;;;;;4997558;28;20708;-67
2020/12/05 05:22:22;;;;;;;29.92;17.38;;;1.50;73.00;;;;;;5002023;28;20060;-68
2020/12/05 05:25:02;;;;;;;31.98;16.95;;;1.50;73.10;;;;;;5002587;28;20060;-68
2020/12/05 05:27:30;;;;;;;31.45;17.98;;;1.50;73.10;;;;;;5003535;28;20058;-69
2020/12/05 05:30:07;;;;;;;30.75;17.98;;;1.50;73.20;;;;;;5004086;28;20053;-71
2020/12/05 05:32:43;;;;;;;26.80;15.30;;;1.50;73.20;;;;;;5003781;28;20415;-68
2020/12/05 05:35:12;;;;;;;26.20;16.77;;;1.50;73.40;;;;;;5001233;28;20077;-68
2020/12/05 05:37:41;;;;;;;28.05;16.55;;;1.50;73.50;;;;;;5002464;28;20141;-67
2020/12/05 05:40:09;;;;;;;29.25;15.95;;;1.50;73.40;;;;;;5002914;28;20495;-67
2020/12/05 05:42:39;;;;;;;29.20;16.23;;;1.50;73.40;;;;;;5001790;28;20046;-67
2020/12/05 05:45:19;;;;;;;28.40;16.98;;;1.50;73.50;;;;;;4997377;28;20053;-72
2020/12/05 05:47:47;;;;;;;28.55;16.35;;;1.60;73.90;;;;;;4998802;28;20046;-68
2020/12/05 05:50:22;;;;;;;34.50;17.83;;;1.60;74.00;;;;;;5001770;28;20046;-70
2020/12/05 05:52:57;;;;;;;27.55;16.70;;;1.60;74.10;;;;;;5003704;28;20076;-70
2020/12/05 05:55:43;;;;;;;28.40;16.90;;;1.50;73.90;;;;;;4993961;28;20054;-70
2020/12/05 05:58:12;;;;;;;31.85;18.17;;;1.50;74.10;;;;;;5000143;28;20069;-75
2020/12/05 06:00:41;;;;;;;29.58;17.10;;;1.60;74.20;;;;;;5005141;28;20045;-73
2020/12/05 06:03:24;;;;;;;27.05;16.67;;;1.60;74.40;;;;;;4999152;28;20047;-68
2020/12/05 06:05:53;;;;;;;29.55;17.55;;;1.60;74.50;;;;;;4997703;28;20042;-71
2020/12/05 06:08:21;;;;;;;32.63;17.73;;;1.60;74.50;;;;;;5001779;28;20042;-68
2020/12/05 06:10:55;;;;;;;30.95;18.33;;;1.60;74.60;;;;;;5001251;28;20054;-68
2020/12/05 06:13:25;;;;;;;33.38;18.58;;;1.70;74.90;;;;;;5000908;28;20361;-71
2020/12/05 06:15:53;;;;;;;29.35;17.55;;;1.80;75.00;;;;;;4999324;28;20064;-68
2020/12/05 06:18:21;;;;;;;34.83;18.73;;;1.80;74.90;;;;;;4997555;28;20042;-70
2020/12/05 06:20:48;;;;;;;32.03;17.55;;;1.70;74.90;;;;;;5001116;28;20038;-70
2020/12/05 06:23:32;;;;;;;29.48;17.35;;;1.60;74.60;;;;;;4996012;28;20046;-69
2020/12/05 06:26:00;;;;;;;30.98;16.77;;;1.60;74.50;;;;;;5000430;28;20088;-69
2020/12/05 06:28:29;;;;;;;29.88;16.45;;;1.60;74.70;;;;;;4995319;28;20058;-69
2020/12/05 06:30:56;;;;;;;26.92;16.20;;;1.60;74.70;;;;;;5001885;28;20057;-68
2020/12/05 06:33:40;;;;;;;28.02;16.00;;;1.50;74.60;;;;;;4999216;28;20046;-69
2020/12/05 06:36:38;;;;;;;28.38;15.98;;;1.60;74.80;;;;;;5000479;28;20061;-67
2020/12/05 06:39:16;;;;;;;30.13;16.55;;;1.60;74.90;;;;;;4992320;28;20770;-70
2020/12/05 06:41:45;;;;;;;28.65;16.33;;;1.60;74.90;;;;;;4995506;28;20047;-70
2020/12/05 06:44:14;;;;;;;26.13;15.90;;;1.60;75.00;;;;;;4999880;28;20061;-69
2020/12/05 06:47:03;;;;;;;26.73;15.57;;;1.60;75.10;;;;;;5002514;28;20049;-68
2020/12/05 06:49:46;;;;;;;28.48;15.60;;;1.60;75.00;;;;;;4995838;28;20053;-68
2020/12/05 06:52:35;;;;;;;31.70;17.58;;;1.70;75.20;;;;;;5005450;28;20423;-71
2020/12/05 06:55:07;;;;;;;28.00;16.55;;;1.60;75.10;;;;;;5001762;28;20069;-69
2020/12/05 06:57:36;;;;;;;31.73;17.48;;;1.60;75.10;;;;;;4997887;28;21764;-69
2020/12/05 07:00:18;;;;;;;28.33;16.45;;;1.60;75.10;;;;;;5002026;28;20045;-67
2020/12/05 07:02:53;;;;;;;30.15;17.58;;;1.60;75.10;;;;;;4998968;28;20126;-69
2020/12/05 07:05:35;;;;;;;30.92;17.00;;;1.60;75.20;;;;;;4999908;28;20431;-69
2020/12/05 07:08:18;;;;;;;29.45;17.02;;;1.60;75.20;;;;;;5000734;28;20057;-70
2020/12/05 07:10:48;;;;;;;28.00;16.98;;;1.60;75.20;;;;;;5002579;28;20053;-69
2020/12/05 07:13:16;;;;;;;27.27;16.70;;;1.60;75.20;;;;;;4999069;28;20042;-69
2020/12/05 07:15:44;;;;;;;26.75;15.57;;;1.60;75.20;;;;;;4999218;28;20050;-68
2020/12/05 07:18:25;;;;;;;24.98;15.52;;;1.60;75.80;;;;;;4996499;28;21378;-69
2020/12/05 07:20:55;;;;;;;27.17;15.13;;;1.60;75.20;;;;;;5003500;28;20105;-68
2020/12/05 07:23:23;;;;;;;26.20;15.95;;;1.70;75.30;;;;;;5000546;28;20058;-69
2020/12/05 07:25:50;;;;;;;23.25;14.73;;;1.70;75.40;;;;;;5000967;28;20049;-72
2020/12/05 07:28:18;;;;;;;27.95;16.35;;;1.70;75.30;;;;;;4996071;28;20046;-69
2020/12/05 07:30:45;;;;;;;27.85;16.77;;;1.60;75.20;;;;;;5004985;28;20506;-68
2020/12/05 07:33:14;;;;;;;30.08;15.35;;;1.70;75.30;;;;;;4999455;28;20542;-69
2020/12/05 07:35:40;;;;;;;25.40;15.80;;;1.60;75.30;;;;;;4998127;28;20046;-70
2020/12/05 07:38:15;;;;;;;22.83;14.82;;;1.70;75.40;;;;;;4990353;28;20045;-68
2020/12/05 07:40:42;;;;;;;26.40;15.63;;;1.70;75.50;;;;;;5002033;28;20060;-68
2020/12/05 07:43:20;;;;;;;24.63;14.75;;;1.70;75.50;;;;;;5002164;28;20060;-68
2020/12/05 07:45:50;;;;;;;25.33;14.38;;;1.80;75.60;;;;;;4997531;28;20147;-67
2020/12/05 07:48:18;;;;;;;18.10;12.45;;;1.80;75.60;;;;;;4991403;28;20050;-70
2020/12/05 07:50:46;;;;;;;22.85;12.90;;;1.80;75.60;;;;;;4999095;28;20042;-71
2020/12/05 07:53:32;;;;;;;21.58;13.60;;;1.90;75.70;;;;;;4998567;28;20129;-69
2020/12/05 07:56:12;;;;;;;23.98;13.07;;;1.90;75.70;;;;;;4998392;28;20105;-71
2020/12/05 07:58:47;;;;;;;21.85;13.82;;;2.00;75.60;;;;;;4991988;28;20634;-68
2020/12/05 08:01:51;;;;;;;23.27;14.07;;;2.10;75.70;;;;;;4997895;28;20053;-69
2020/12/05 08:04:54;;;;;;;22.15;13.65;;;2.10;75.40;;;;;;4996006;28;20983;-69
2020/12/05 08:07:35;;;;;;;20.35;13.00;;;2.10;74.50;;;;;;4999247;28;20084;-71
2020/12/05 08:10:04;;;;;;;21.55;13.75;;;2.10;74.50;;;;;;4999259;28;20058;-70
2020/12/05 08:12:55;;;;;;;22.90;13.43;;;2.10;74.50;;;;;;5002158;28;20045;-70
2020/12/05 08:15:23;;;;;;;22.55;13.68;;;2.10;74.30;;;;;;4987138;28;20125;-69
2020/12/05 08:17:51;;;;;;;21.10;12.88;;;2.10;74.20;;;;;;4998556;28;20046;-69
2020/12/05 08:20:19;;;;;;;23.40;13.20;;;2.10;74.30;;;;;;5000699;28;20052;-70
2020/12/05 08:22:46;;;;;;;22.10;13.27;;;2.20;74.10;;;;;;5000805;28;20058;-70
2020/12/05 08:25:13;;;;;;;19.50;12.45;;;2.20;74.20;;;;;;5001264;28;20046;-70
2020/12/05 08:27:40;;;;;;;25.10;14.43;;;2.20;74.10;;;;;;4998077;28;20061;-70
2020/12/05 08:30:08;;;;;;;27.38;14.98;;;2.30;74.10;;;;;;5000738;28;20051;-69
2020/12/05 08:32:36;;;;;;;25.92;14.93;;;2.20;73.80;;;;;;5004408;28;20046;-70
2020/12/05 08:35:06;;;;;;;27.58;15.10;;;2.30;73.90;;;;;;5001229;28;20061;-70
2020/12/05 08:37:34;;;;;;;24.48;13.40;;;2.40;73.80;;;;;;4998368;28;20101;-70
2020/12/05 08:40:01;;;;;;;17.55;11.80;;;2.50;73.40;;;;;;4999111;28;20061;-70
2020/12/05 08:42:28;;;;;;;18.08;10.73;;;2.50;72.10;;;;;;5001471;28;20050;-71
2020/12/05 08:44:55;;;;;;;26.77;14.07;;;2.50;72.10;;;;;;5000184;28;20045;-70
2020/12/05 08:47:21;;;;;;;34.03;16.90;;;2.50;72.10;;;;;;4998960;28;20050;-69
2020/12/05 08:49:49;;;;;;;37.15;17.83;;;2.50;72.30;;;;;;5000479;28;20096;-71
2020/12/05 08:52:17;;;;;;;28.95;17.35;;;2.30;70.90;;;;;;5001077;28;20043;-71
2020/12/05 08:54:45;;;;;;;28.40;17.48;;;2.30;71.90;;;;;;5002225;28;20065;-71
2020/12/05 08:57:13;;;;;;;27.40;16.05;;;2.30;72.40;;;;;;4996945;28;20049;-71
2020/12/05 08:59:40;;;;;;;23.23;13.95;;;2.40;73.00;;;;;;4998233;28;20050;-70
2020/12/05 09:02:08;;;;;;;22.45;12.80;;;2.40;72.30;;;;;;5001782;28;20057;-71
2020/12/05 09:04:37;;;;;;;24.38;15.00;;;2.60;73.60;;;;;;4999461;28;20771;-71
2020/12/05 09:07:12;;;;;;;22.52;14.45;;;2.40;72.00;;;;;;5000980;28;20172;-71
2020/12/05 09:09:40;;;;;;;;;;;2.60;73.00;;;;;;4996572;28;20133;-70
2020/12/05 09:12:10;;;;;;;20.77;10.80;;;2.70;73.60;;;;;;5003249;28;19926;-71
2020/12/05 09:14:37;;;;;;;15.45;9.65;;;2.80;73.40;;;;;;4998869;28;20414;-70
2020/12/05 09:17:20;;;;;;;15.75;9.88;;;2.80;72.80;;;;;;5001675;28;20057;-71
2020/12/05 09:19:47;;;;;;;15.73;9.93;;;2.90;72.40;;;;;;4998779;28;20058;-71
2020/12/05 09:22:27;;;;;;;18.70;10.30;;;3.00;70.10;;;;;;5002649;28;20043;-71
2020/12/05 09:24:55;;;;;;;11.70;7.50;;;3.10;68.50;;;;;;5000307;28;20053;-70
2020/12/05 09:27:22;;;;;;;9.20;7.03;;;3.10;66.80;;;;;;4998186;28;20495;-70
2020/12/05 09:29:49;;;;;;;14.95;8.75;;;3.10;63.60;;;;;;4998587;28;20149;-70
2020/12/05 09:32:16;;;;;;;22.80;8.73;;;3.20;63.90;;;;;;4999580;28;20045;-71
2020/12/05 09:34:43;;;;;;;14.23;8.45;;;3.20;60.60;;;;;;4999331;28;20061;-70
2020/12/05 09:37:11;;;;;;;15.82;9.50;;;3.20;59.60;;;;;;5002882;28;20045;-72
2020/12/05 09:39:38;;;;;;;14.25;10.10;;;3.20;60.50;;;;;;4997384;28;20511;-70
2020/12/05 09:42:07;;;;;;;13.93;9.23;;;3.20;60.50;;;;;;5000886;28;20061;-70
2020/12/05 09:44:34;;;;;;;14.82;9.43;;;3.20;59.10;;;;;;5001547;28;21435;-70
2020/12/05 09:47:01;;;;;;;14.45;9.05;;;3.30;59.10;;;;;;5001912;28;20399;-71
2020/12/05 09:49:28;;;;;;;13.45;8.73;;;3.30;59.30;;;;;;4993993;28;20057;-70
2020/12/05 09:51:55;;;;;;;14.18;8.52;;;3.30;58.60;;;;;;5000464;28;20053;-70
2020/12/05 09:54:22;;;;;;;17.25;8.43;;;3.20;56.80;;;;;;4999297;28;20054;-71
2020/12/05 09:56:50;;;;;;;18.20;11.32;;;3.30;58.80;;;;;;4996993;28;20053;-71
2020/12/05 09:59:17;;;;;;;14.88;10.38;;;3.20;59.90;;;;;;4990967;28;20057;-71
2020/12/05 10:01:44;;;;;;;15.35;10.52;;;3.30;60.40;;;;;;5001341;28;20054;-71
2020/12/05 10:04:14;;;;;;;15.85;11.13;;;3.20;61.70;;;;;;4999229;28;20057;-70
2020/12/05 10:06:50;;;;;;;18.40;11.15;;;3.20;61.30;;;;;;4997914;28;20050;-71
2020/12/05 10:09:17;;;;;;;13.80;9.43;;;3.30;62.70;;;;;;4993886;28;20058;-71
2020/12/05 10:11:44;;;;;;;15.43;9.73;;;3.10;58.50;;;;;;5000890;28;20042;-70
2020/12/05 10:14:10;;;;;;;15.93;10.77;;;3.00;58.50;;;;;;4996912;28;20050;-71
2020/12/05 10:16:38;;;;;;;16.98;10.88;;;3.10;60.80;;;;;;4999330;28;20046;-70
2020/12/05 10:19:05;;;;;;;14.70;10.23;;;3.20;62.60;;;;;;4992988;28;20064;-70
2020/12/05 10:21:32;;;;;;;14.25;10.23;;;3.20;61.80;;;;;;5000860;28;20045;-70
2020/12/05 10:23:59;;;;;;;14.50;9.00;;;3.20;60.60;;;;;;4999738;28;20046;-72
2020/12/05 10:26:26;;;;;;;15.27;9.43;;;3.20;59.30;;;;;;5001087;28;20053;-71
2020/12/05 10:28:53;;;;;;;14.68;10.18;;;3.10;57.70;;;;;;4994648;28;20058;-72
2020/12/05 10:31:19;;;;;;;15.80;10.43;;;3.10;58.90;;;;;;4999159;28;20060;-72
2020/12/05 10:33:47;;;;;;;17.55;10.80;;;3.20;59.90;;;;;;4997627;28;20069;-70
2020/12/05 10:36:18;;;;;;;15.93;11.10;;;3.30;60.00;;;;;;5000616;28;20518;-70
2020/12/05 10:38:46;;;;;;;17.95;10.43;;;3.40;59.20;;;;;;4993125;28;20054;-71
2020/12/05 10:41:13;;;;;;;16.17;11.32;;;3.30;58.00;;;;;;5000747;28;20063;-71
2020/12/05 10:43:41;;;;;;;55.30;33.35;;;3.50;60.00;;;;;;4997537;28;20052;-69
2020/12/05 10:46:08;;;;;;;16.05;10.52;;;3.60;61.00;;;;;;4999792;28;20047;-70
2020/12/05 10:48:34;;;;;;;12.93;9.18;;;3.60;60.70;;;;;;4990782;28;20061;-72
2020/12/05 10:51:02;;;;;;;14.65;10.13;;;3.50;58.40;;;;;;4996636;28;20052;-71
2020/12/05 10:53:31;;;;;;;19.45;11.18;;;3.30;57.00;;;;;;5000983;28;20084;-71
2020/12/05 10:55:58;;;;;;;15.25;10.30;;;3.40;58.20;;;;;;4999471;28;20046;-71
2020/12/05 10:58:25;;;;;;;21.65;11.35;;;3.30;58.10;;;;;;4990867;28;20058;-71
2020/12/05 11:00:52;;;;;;;19.33;11.32;;;3.30;57.70;;;;;;4999169;28;20052;-70
2020/12/05 11:03:19;;;;;;;17.13;10.40;;;3.20;60.00;;;;;;4998733;28;20133;-71
2020/12/05 11:05:45;;;;;;;17.75;11.00;;;3.30;60.70;;;;;;4995119;28;20046;-69
2020/12/05 11:08:13;;;;;;;17.30;10.90;;;3.20;63.00;;;;;;4996006;28;20626;-70
2020/12/05 11:10:40;;;;;;;15.82;10.75;;;3.30;64.80;;;;;;4996983;28;20073;-71
2020/12/05 11:13:07;;;;;;;18.60;11.40;;;3.40;64.60;;;;;;5002177;28;20046;-71
2020/12/05 11:15:34;;;;;;;18.30;12.57;;;3.40;64.20;;;;;;4997506;28;20046;-70
2020/12/05 11:18:00;;;;;;;18.50;10.90;;;3.30;60.00;;;;;;4995976;28;20538;-69
2020/12/05 11:20:27;;;;;;;14.60;10.18;;;3.20;60.00;;;;;;4995009;28;20060;-71
2020/12/05 11:22:54;;;;;;;20.83;12.00;;;3.20;59.60;;;;;;4999960;28;20145;-71
2020/12/05 11:25:22;;;;;;;16.65;10.93;;;3.20;60.60;;;;;;4997825;28;20046;-70
2020/12/05 11:27:49;;;;;;;17.23;11.52;;;3.40;62.60;;;;;;4995836;28;20100;-70
2020/12/05 11:30:16;;;;;;;18.10;11.73;;;3.50;60.90;;;;;;4994089;28;20046;-71
2020/12/05 11:32:43;;;;;;;15.68;11.48;;;3.50;58.60;;;;;;4999350;28;20046;-70
2020/12/05 11:35:10;;;;;;;19.60;13.13;;;3.50;57.00;;;;;;4994113;28;20054;-70
2020/12/05 11:37:37;;;;;;;18.08;12.15;;;3.60;59.50;;;;;;4994524;28;20064;-71
2020/12/05 11:40:04;;;;;;;20.63;13.00;;;3.50;59.20;;;;;;4996122;28;20054;-70
2020/12/05 11:42:32;;;;;;;19.38;11.98;;;3.60;57.80;;;;;;4998305;28;20049;-70
2020/12/05 11:45:01;;;;;;;16.40;11.80;;;3.60;57.00;;;;;;5001315;28;20054;-70
2020/12/05 11:47:28;;;;;;;18.85;11.38;;;3.70;58.30;;;;;;4998170;28;20072;-69
2020/12/05 11:49:56;;;;;;;15.73;10.38;;;3.70;56.40;;;;;;5000348;28;20046;-71
2020/12/05 11:52:23;;;;;;;16.85;10.63;;;3.60;55.30;;;;;;5003866;28;20069;-73
2020/12/05 11:54:50;;;;;;;16.52;11.90;;;3.60;55.80;;;;;;5001228;28;20058;-70
2020/12/05 11:57:17;;;;;;;18.67;12.90;;;3.60;55.50;;;;;;4998733;28;20058;-70
2020/12/05 11:59:45;;;;;;;24.48;13.90;;;3.70;56.80;;;;;;4996961;28;20046;-71
2020/12/05 12:02:12;;;;;;;18.38;13.00;;;3.80;56.10;;;;;;5000083;28;20101;-71
2020/12/05 12:04:40;;;;;;;21.38;14.07;;;3.70;57.10;;;;;;5000027;28;20500;-70
2020/12/05 12:07:06;;;;;;;19.38;13.38;;;3.70;58.50;;;;;;5005369;28;20480;-68
2020/12/05 12:09:33;;;;;;;17.98;11.77;;;3.70;58.20;;;;;;4995691;28;20415;-69
2020/12/05 12:12:00;;;;;;;19.83;12.35;;;3.60;56.40;;;;;;5002351;28;20053;-72
2020/12/05 12:14:27;;;;;;;20.77;12.75;;;3.60;57.10;;;;;;5001011;28;20396;-71
2020/12/05 12:16:56;;;;;;;23.88;16.00;;;3.70;57.10;;;;;;5003255;28;20133;-71
2020/12/05 12:19:22;;;;;;;52.78;34.15;;;3.70;58.60;;;;;;4993535;28;20050;-72
2020/12/05 12:21:50;;;;;;;30.70;18.75;;;3.90;61.20;;;;;;5003230;28;20140;-69
2020/12/05 12:24:17;;;;;;;23.05;14.27;;;3.90;57.00;;;;;;4997779;28;20130;-72
2020/12/05 12:26:44;;;;;;;21.50;14.02;;;3.80;59.20;;;;;;5002671;28;20501;-71
2020/12/05 12:29:10;;;;;;;18.50;13.32;;;3.80;59.60;;;;;;4994204;28;20058;-71
2020/12/05 12:31:37;;;;;;;16.80;12.13;;;3.80;58.40;;;;;;5001603;28;20361;-71
2020/12/05 12:34:06;;;;;;;18.65;11.88;;;3.90;58.70;;;;;;4994093;28;20075;-69
2020/12/05 12:36:34;;;;;;;17.70;11.50;;;3.80;57.90;;;;;;5002628;28;20407;-70
2020/12/05 12:39:01;;;;;;;19.83;11.45;;;3.90;57.10;;;;;;4997049;28;20054;-71
2020/12/05 12:41:28;;;;;;;16.70;10.98;;;3.80;55.30;;;;;;5003113;28;20114;-70
2020/12/05 12:43:56;;;;;;;16.98;12.45;;;3.70;55.90;;;;;;4998802;28;20046;-71
2020/12/05 12:46:25;;;;;;;17.55;11.90;;;3.80;57.40;;;;;;5003767;28;20049;-71
2020/12/05 12:48:52;;;;;;;16.65;11.02;;;3.90;57.00;;;;;;4995296;28;20085;-71